Terminal Aerodrome Forecast
Issued by NWS

Home | Current Version | Previous Version | Text Only | Print | Product List | Glossary On
Versions: 1 2 3 4 5 6 7 8 9 10 11 12 13 14 15 16 17 18
350
FTUS42 KTBW 222339
TAFRSW
TAF
KRSW 222339Z 2300/2324 12005KT P6SM FEW050 SCT250
     FM230200 09004KT P6SM SCT250
     FM231400 13009KT P6SM SCT030 SCT250
     FM231800 16009KT P6SM VCTS BKN040CB=

USA.gov is the U.S. government's official web portal to all federal, state and local government web resources and services.